sensor_id;sensor_type;location;lat;lon;timestamp;P1;durP1;ratioP1;P2;durP2;ratioP2
62353;SDS011;48391;49.184;2.418;2022-09-21T00:01:14;1.00;;;0.70;;
62353;SDS011;48391;49.184;2.418;2022-09-21T00:03:40;0.80;;;0.80;;
62353;SDS011;48391;49.184;2.418;2022-09-21T00:06:26;1.60;;;1.20;;
62353;SDS011;48391;49.184;2.418;2022-09-21T00:08:53;2.17;;;1.02;;
62353;SDS011;48391;49.184;2.418;2022-09-21T00:11:20;1.23;;;0.80;;
62353;SDS011;48391;49.184;2.418;2022-09-21T00:13:50;0.98;;;0.60;;
62353;SDS011;48391;49.184;2.418;2022-09-21T00:16:18;1.08;;;0.93;;
62353;SDS011;48391;49.184;2.418;2022-09-21T00:18:45;1.40;;;0.88;;
62353;SDS011;48391;49.184;2.418;2022-09-21T00:21:13;2.13;;;0.77;;
62353;SDS011;48391;49.184;2.418;2022-09-21T00:23:39;0.57;;;0.57;;
62353;SDS011;48391;49.184;2.418;2022-09-21T00:26:10;1.85;;;1.10;;
62353;SDS011;48391;49.184;2.418;2022-09-21T00:28:36;2.30;;;1.08;;
62353;SDS011;48391;49.184;2.418;2022-09-21T00:31:03;1.27;;;1.10;;
62353;SDS011;48391;49.184;2.418;2022-09-21T00:33:31;3.35;;;0.88;;
62353;SDS011;48391;49.184;2.418;2022-09-21T00:36:03;0.95;;;0.85;;
62353;SDS011;48391;49.184;2.418;2022-09-21T00:38:30;1.23;;;1.13;;
62353;SDS011;48391;49.184;2.418;2022-09-21T00:40:56;1.52;;;0.85;;
62353;SDS011;48391;49.184;2.418;2022-09-21T00:43:22;2.40;;;1.58;;
62353;SDS011;48391;49.184;2.418;2022-09-21T00:45:48;1.75;;;0.82;;
62353;SDS011;48391;49.184;2.418;2022-09-21T00:48:15;1.42;;;1.20;;
62353;SDS011;48391;49.184;2.418;2022-09-21T00:50:43;1.13;;;0.90;;
62353;SDS011;48391;49.184;2.418;2022-09-21T00:53:11;1.40;;;1.20;;
62353;SDS011;48391;49.184;2.418;2022-09-21T00:55:42;1.15;;;1.00;;
62353;SDS011;48391;49.184;2.418;2022-09-21T00:58:13;0.77;;;0.77;;
62353;SDS011;48391;49.184;2.418;2022-09-21T01:00:40;0.90;;;0.77;;
62353;SDS011;48391;49.184;2.418;2022-09-21T01:03:07;1.27;;;1.17;;
62353;SDS011;48391;49.184;2.418;2022-09-21T01:05:33;0.55;;;0.55;;
62353;SDS011;48391;49.184;2.418;2022-09-21T01:08:00;1.55;;;0.90;;
62353;SDS011;48391;49.184;2.418;2022-09-21T01:10:29;1.00;;;0.60;;
62353;SDS011;48391;49.184;2.418;2022-09-21T01:18:29;1.33;;;0.82;;
62353;SDS011;48391;49.184;2.418;2022-09-21T01:26:36;0.52;;;0.52;;
62353;SDS011;48391;49.184;2.418;2022-09-21T01:31:39;1.08;;;0.98;;
62353;SDS011;48391;49.184;2.418;2022-09-21T01:34:10;0.70;;;0.43;;
62353;SDS011;48391;49.184;2.418;2022-09-21T01:36:41;0.77;;;0.52;;
62353;SDS011;48391;49.184;2.418;2022-09-21T01:39:12;1.25;;;0.70;;
62353;SDS011;48391;49.184;2.418;2022-09-21T01:41:40;1.17;;;0.65;;
62353;SDS011;48391;49.184;2.418;2022-09-21T01:44:11;1.25;;;0.60;;
62353;SDS011;48391;49.184;2.418;2022-09-21T01:46:41;1.55;;;0.90;;
62353;SDS011;48391;49.184;2.418;2022-09-21T01:49:09;0.63;;;0.63;;
62353;SDS011;48391;49.184;2.418;2022-09-21T01:51:36;0.63;;;0.50;;
62353;SDS011;48391;49.184;2.418;2022-09-21T01:54:09;0.60;;;0.30;;
62353;SDS011;48391;49.184;2.418;2022-09-21T01:56:40;1.85;;;0.50;;
62353;SDS011;48391;49.184;2.418;2022-09-21T01:59:09;0.82;;;0.77;;
62353;SDS011;48391;49.184;2.418;2022-09-21T02:01:40;0.57;;;0.40;;
62353;SDS011;48391;49.184;2.418;2022-09-21T02:04:09;0.63;;;0.30;;
62353;SDS011;48391;49.184;2.418;2022-09-21T02:06:35;1.60;;;0.52;;
62353;SDS011;48391;49.184;2.418;2022-09-21T02:09:02;0.45;;;0.45;;
62353;SDS011;48391;49.184;2.418;2022-09-21T02:11:28;0.60;;;0.40;;
62353;SDS011;48391;49.184;2.418;2022-09-21T02:13:54;1.27;;;0.40;;
62353;SDS011;48391;49.184;2.418;2022-09-21T02:24:08;0.38;;;0.38;;
62353;SDS011;48391;49.184;2.418;2022-09-21T02:26:46;0.43;;;0.35;;
62353;SDS011;48391;49.184;2.418;2022-09-21T02:29:19;1.10;;;0.47;;
62353;SDS011;48391;49.184;2.418;2022-09-21T02:31:54;0.20;;;0.20;;
62353;SDS011;48391;49.184;2.418;2022-09-21T02:34:43;0.43;;;0.30;;
62353;SDS011;48391;49.184;2.418;2022-09-21T02:39:50;0.40;;;0.40;;
62353;SDS011;48391;49.184;2.418;2022-09-21T02:42:21;0.50;;;0.50;;
62353;SDS011;48391;49.184;2.418;2022-09-21T02:45:06;0.63;;;0.63;;
62353;SDS011;48391;49.184;2.418;2022-09-21T02:47:40;1.50;;;0.90;;
62353;SDS011;48391;49.184;2.418;2022-09-21T02:50:21;0.57;;;0.57;;
62353;SDS011;48391;49.184;2.418;2022-09-21T02:52:48;0.32;;;0.30;;
62353;SDS011;48391;49.184;2.418;2022-09-21T02:55:16;1.13;;;0.60;;
62353;SDS011;48391;49.184;2.418;2022-09-21T02:57:43;1.20;;;0.47;;
62353;SDS011;48391;49.184;2.418;2022-09-21T03:00:10;0.45;;;0.45;;
62353;SDS011;48391;49.184;2.418;2022-09-21T03:02:38;0.55;;;0.50;;
62353;SDS011;48391;49.184;2.418;2022-09-21T03:05:04;1.45;;;0.85;;
62353;SDS011;48391;49.184;2.418;2022-09-21T03:07:30;0.93;;;0.80;;
62353;SDS011;48391;49.184;2.418;2022-09-21T03:09:56;0.50;;;0.40;;
62353;SDS011;48391;49.184;2.418;2022-09-21T03:12:22;0.55;;;0.40;;
62353;SDS011;48391;49.184;2.418;2022-09-21T03:14:50;0.30;;;0.30;;
62353;SDS011;48391;49.184;2.418;2022-09-21T03:17:17;0.70;;;0.70;;
62353;SDS011;48391;49.184;2.418;2022-09-21T03:19:43;0.45;;;0.40;;
62353;SDS011;48391;49.184;2.418;2022-09-21T03:22:09;0.75;;;0.57;;
62353;SDS011;48391;49.184;2.418;2022-09-21T03:24:35;0.75;;;0.47;;
62353;SDS011;48391;49.184;2.418;2022-09-21T03:27:20;0.60;;;0.60;;
62353;SDS011;48391;49.184;2.418;2022-09-21T03:29:47;0.68;;;0.68;;
62353;SDS011;48391;49.184;2.418;2022-09-21T03:32:16;0.65;;;0.30;;
62353;SDS011;48391;49.184;2.418;2022-09-21T03:34:42;1.15;;;0.57;;
62353;SDS011;48391;49.184;2.418;2022-09-21T03:37:11;0.50;;;0.38;;
62353;SDS011;48391;49.184;2.418;2022-09-21T03:39:37;0.75;;;0.45;;
62353;SDS011;48391;49.184;2.418;2022-09-21T03:42:03;1.25;;;0.60;;
62353;SDS011;48391;49.184;2.418;2022-09-21T03:44:29;0.73;;;0.47;;
62353;SDS011;48391;49.184;2.418;2022-09-21T03:46:55;0.80;;;0.80;;
62353;SDS011;48391;49.184;2.418;2022-09-21T03:49:22;0.70;;;0.70;;
62353;SDS011;48391;49.184;2.418;2022-09-21T03:51:48;1.00;;;0.35;;
62353;SDS011;48391;49.184;2.418;2022-09-21T03:54:14;0.40;;;0.40;;
62353;SDS011;48391;49.184;2.418;2022-09-21T03:56:40;0.70;;;0.68;;
62353;SDS011;48391;49.184;2.418;2022-09-21T03:59:06;0.60;;;0.60;;
62353;SDS011;48391;49.184;2.418;2022-09-21T04:01:32;2.42;;;0.70;;
62353;SDS011;48391;49.184;2.418;2022-09-21T04:03:58;1.50;;;0.60;;
62353;SDS011;48391;49.184;2.418;2022-09-21T04:06:24;0.52;;;0.40;;
62353;SDS011;48391;49.184;2.418;2022-09-21T04:08:50;0.85;;;0.70;;
62353;SDS011;48391;49.184;2.418;2022-09-21T04:11:18;0.65;;;0.63;;
62353;SDS011;48391;49.184;2.418;2022-09-21T04:13:50;0.77;;;0.38;;
62353;SDS011;48391;49.184;2.418;2022-09-21T04:16:21;1.27;;;0.47;;
62353;SDS011;48391;49.184;2.418;2022-09-21T04:18:47;0.80;;;0.47;;
62353;SDS011;48391;49.184;2.418;2022-09-21T04:21:14;1.27;;;0.47;;
62353;SDS011;48391;49.184;2.418;2022-09-21T04:23:41;0.65;;;0.65;;
62353;SDS011;48391;49.184;2.418;2022-09-21T04:26:17;1.27;;;0.95;;
62353;SDS011;48391;49.184;2.418;2022-09-21T04:28:43;1.73;;;0.85;;
62353;SDS011;48391;49.184;2.418;2022-09-21T04:31:09;0.70;;;0.70;;
62353;SDS011;48391;49.184;2.418;2022-09-21T04:33:35;1.40;;;1.10;;
62353;SDS011;48391;49.184;2.418;2022-09-21T04:36:01;2.00;;;1.10;;
62353;SDS011;48391;49.184;2.418;2022-09-21T04:38:29;0.70;;;0.60;;
62353;SDS011;48391;49.184;2.418;2022-09-21T04:40:57;0.95;;;0.90;;
62353;SDS011;48391;49.184;2.418;2022-09-21T04:43:24;0.80;;;0.77;;
62353;SDS011;48391;49.184;2.418;2022-09-21T04:45:50;1.42;;;0.93;;
62353;SDS011;48391;49.184;2.418;2022-09-21T04:48:16;1.60;;;0.90;;
62353;SDS011;48391;49.184;2.418;2022-09-21T04:50:42;1.40;;;0.85;;
62353;SDS011;48391;49.184;2.418;2022-09-21T04:53:09;1.50;;;1.00;;
62353;SDS011;48391;49.184;2.418;2022-09-21T04:55:35;1.10;;;1.00;;
62353;SDS011;48391;49.184;2.418;2022-09-21T04:58:01;0.90;;;0.80;;
62353;SDS011;48391;49.184;2.418;2022-09-21T05:00:27;2.25;;;1.33;;
62353;SDS011;48391;49.184;2.418;2022-09-21T05:02:53;1.50;;;1.40;;
62353;SDS011;48391;49.184;2.418;2022-09-21T05:05:19;1.83;;;1.35;;
62353;SDS011;48391;49.184;2.418;2022-09-21T05:07:45;1.48;;;1.00;;
62353;SDS011;48391;49.184;2.418;2022-09-21T05:10:11;1.33;;;1.10;;
62353;SDS011;48391;49.184;2.418;2022-09-21T05:12:37;1.02;;;0.93;;
62353;SDS011;48391;49.184;2.418;2022-09-21T05:15:03;1.95;;;0.85;;
62353;SDS011;48391;49.184;2.418;2022-09-21T05:17:29;1.38;;;1.27;;
62353;SDS011;48391;49.184;2.418;2022-09-21T05:19:55;1.92;;;1.55;;
62353;SDS011;48391;49.184;2.418;2022-09-21T05:22:22;1.52;;;1.20;;
62353;SDS011;48391;49.184;2.418;2022-09-21T05:24:48;1.00;;;0.90;;
62353;SDS011;48391;49.184;2.418;2022-09-21T05:27:17;1.48;;;1.38;;
62353;SDS011;48391;49.184;2.418;2022-09-21T05:29:52;1.38;;;1.27;;
62353;SDS011;48391;49.184;2.418;2022-09-21T05:32:31;1.33;;;1.23;;
62353;SDS011;48391;49.184;2.418;2022-09-21T05:35:06;2.17;;;1.27;;
62353;SDS011;48391;49.184;2.418;2022-09-21T05:40:07;1.73;;;1.45;;
62353;SDS011;48391;49.184;2.418;2022-09-21T05:42:35;1.25;;;1.10;;
62353;SDS011;48391;49.184;2.418;2022-09-21T05:45:01;1.15;;;1.00;;
62353;SDS011;48391;49.184;2.418;2022-09-21T06:00:41;1.38;;;1.27;;
62353;SDS011;48391;49.184;2.418;2022-09-21T06:03:24;1.20;;;1.20;;
62353;SDS011;48391;49.184;2.418;2022-09-21T06:05:51;1.45;;;1.33;;
62353;SDS011;48391;49.184;2.418;2022-09-21T06:08:17;1.08;;;0.90;;
62353;SDS011;48391;49.184;2.418;2022-09-21T06:10:43;0.95;;;0.88;;
62353;SDS011;48391;49.184;2.418;2022-09-21T06:13:09;1.27;;;1.10;;
62353;SDS011;48391;49.184;2.418;2022-09-21T06:15:36;1.42;;;0.90;;
62353;SDS011;48391;49.184;2.418;2022-09-21T06:18:05;3.22;;;1.17;;
62353;SDS011;48391;49.184;2.418;2022-09-21T06:20:32;0.95;;;0.95;;
62353;SDS011;48391;49.184;2.418;2022-09-21T06:23:01;4.57;;;1.20;;
62353;SDS011;48391;49.184;2.418;2022-09-21T06:25:27;1.35;;;1.25;;
62353;SDS011;48391;49.184;2.418;2022-09-21T06:27:53;1.38;;;0.88;;
62353;SDS011;48391;49.184;2.418;2022-09-21T06:30:19;1.05;;;0.85;;
62353;SDS011;48391;49.184;2.418;2022-09-21T06:32:45;4.05;;;1.27;;
62353;SDS011;48391;49.184;2.418;2022-09-21T06:35:11;1.55;;;1.45;;
62353;SDS011;48391;49.184;2.418;2022-09-21T06:37:37;1.40;;;1.30;;
62353;SDS011;48391;49.184;2.418;2022-09-21T06:40:06;0.50;;;0.50;;
62353;SDS011;48391;49.184;2.418;2022-09-21T06:42:32;0.70;;;0.70;;
62353;SDS011;48391;49.184;2.418;2022-09-21T06:44:58;0.68;;;0.68;;
62353;SDS011;48391;49.184;2.418;2022-09-21T06:47:24;0.77;;;0.77;;
62353;SDS011;48391;49.184;2.418;2022-09-21T06:49:50;0.60;;;0.40;;
62353;SDS011;48391;49.184;2.418;2022-09-21T06:52:17;1.33;;;0.65;;
62353;SDS011;48391;49.184;2.418;2022-09-21T06:54:43;0.43;;;0.43;;
62353;SDS011;48391;49.184;2.418;2022-09-21T06:57:09;0.60;;;0.38;;
62353;SDS011;48391;49.184;2.418;2022-09-21T06:59:35;1.50;;;0.52;;
62353;SDS011;48391;49.184;2.418;2022-09-21T07:02:01;0.85;;;0.70;;
62353;SDS011;48391;49.184;2.418;2022-09-21T07:04:28;1.73;;;0.90;;
62353;SDS011;48391;49.184;2.418;2022-09-21T07:06:55;2.47;;;1.13;;
62353;SDS011;48391;49.184;2.418;2022-09-21T07:09:21;0.95;;;0.82;;
62353;SDS011;48391;49.184;2.418;2022-09-21T07:11:47;1.95;;;1.15;;
62353;SDS011;48391;49.184;2.418;2022-09-21T07:14:13;1.13;;;1.02;;
62353;SDS011;48391;49.184;2.418;2022-09-21T07:16:39;2.58;;;1.75;;
62353;SDS011;48391;49.184;2.418;2022-09-21T07:21:46;1.67;;;1.58;;
62353;SDS011;48391;49.184;2.418;2022-09-21T07:24:12;3.95;;;2.35;;
62353;SDS011;48391;49.184;2.418;2022-09-21T07:26:39;1.25;;;1.15;;
62353;SDS011;48391;49.184;2.418;2022-09-21T07:29:05;3.97;;;2.05;;
62353;SDS011;48391;49.184;2.418;2022-09-21T07:31:31;2.63;;;2.30;;
62353;SDS011;48391;49.184;2.418;2022-09-21T07:33:57;2.20;;;1.98;;
62353;SDS011;48391;49.184;2.418;2022-09-21T07:36:23;5.55;;;2.53;;
62353;SDS011;48391;49.184;2.418;2022-09-21T07:38:49;3.17;;;2.15;;
62353;SDS011;48391;49.184;2.418;2022-09-21T07:41:15;4.15;;;2.47;;
62353;SDS011;48391;49.184;2.418;2022-09-21T07:43:41;3.85;;;3.25;;
62353;SDS011;48391;49.184;2.418;2022-09-21T07:46:08;4.93;;;3.72;;
62353;SDS011;48391;49.184;2.418;2022-09-21T07:48:34;3.88;;;2.70;;
62353;SDS011;48391;49.184;2.418;2022-09-21T07:51:05;5.28;;;1.77;;
62353;SDS011;48391;49.184;2.418;2022-09-21T07:53:32;5.10;;;3.17;;
62353;SDS011;48391;49.184;2.418;2022-09-21T07:56:08;5.88;;;4.43;;
62353;SDS011;48391;49.184;2.418;2022-09-21T07:58:35;3.88;;;3.17;;
62353;SDS011;48391;49.184;2.418;2022-09-21T08:01:20;3.30;;;1.90;;
62353;SDS011;48391;49.184;2.418;2022-09-21T08:03:49;4.55;;;1.88;;
62353;SDS011;48391;49.184;2.418;2022-09-21T08:06:16;3.85;;;2.42;;
62353;SDS011;48391;49.184;2.418;2022-09-21T08:08:42;4.38;;;3.10;;
62353;SDS011;48391;49.184;2.418;2022-09-21T08:11:08;8.88;;;4.43;;
62353;SDS011;48391;49.184;2.418;2022-09-21T08:13:38;6.70;;;4.20;;
62353;SDS011;48391;49.184;2.418;2022-09-21T08:16:04;4.00;;;3.03;;
62353;SDS011;48391;49.184;2.418;2022-09-21T08:18:30;5.15;;;4.60;;
62353;SDS011;48391;49.184;2.418;2022-09-21T08:20:57;8.48;;;4.40;;
62353;SDS011;48391;49.184;2.418;2022-09-21T08:23:23;4.32;;;3.05;;
62353;SDS011;48391;49.184;2.418;2022-09-21T08:25:57;4.07;;;3.08;;
62353;SDS011;48391;49.184;2.418;2022-09-21T08:28:24;6.03;;;3.92;;
62353;SDS011;48391;49.184;2.418;2022-09-21T08:30:57;5.97;;;3.95;;
62353;SDS011;48391;49.184;2.418;2022-09-21T08:33:23;5.22;;;4.05;;
62353;SDS011;48391;49.184;2.418;2022-09-21T08:35:55;4.03;;;3.55;;
62353;SDS011;48391;49.184;2.418;2022-09-21T08:38:21;6.40;;;3.92;;
62353;SDS011;48391;49.184;2.418;2022-09-21T08:40:47;7.68;;;4.70;;
62353;SDS011;48391;49.184;2.418;2022-09-21T08:43:26;3.88;;;2.65;;
62353;SDS011;48391;49.184;2.418;2022-09-21T08:45:55;4.22;;;2.92;;
62353;SDS011;48391;49.184;2.418;2022-09-21T08:48:23;4.65;;;3.20;;
62353;SDS011;48391;49.184;2.418;2022-09-21T08:50:52;6.03;;;2.85;;
62353;SDS011;48391;49.184;2.418;2022-09-21T08:53:40;5.05;;;3.22;;
62353;SDS011;48391;49.184;2.418;2022-09-21T08:56:07;5.10;;;3.45;;
62353;SDS011;48391;49.184;2.418;2022-09-21T08:58:35;2.78;;;1.85;;
62353;SDS011;48391;49.184;2.418;2022-09-21T09:06:55;4.97;;;3.05;;
62353;SDS011;48391;49.184;2.418;2022-09-21T09:12:19;4.30;;;2.53;;
62353;SDS011;48391;49.184;2.418;2022-09-21T09:22:14;1.95;;;1.75;;
62353;SDS011;48391;49.184;2.418;2022-09-21T09:24:47;3.17;;;2.20;;
62353;SDS011;48391;49.184;2.418;2022-09-21T09:27:24;2.45;;;2.05;;
62353;SDS011;48391;49.184;2.418;2022-09-21T09:30:00;1.35;;;1.25;;
62353;SDS011;48391;49.184;2.418;2022-09-21T09:32:34;2.55;;;1.58;;
62353;SDS011;48391;49.184;2.418;2022-09-21T09:35:11;1.38;;;0.85;;
62353;SDS011;48391;49.184;2.418;2022-09-21T09:37:38;3.92;;;2.10;;
62353;SDS011;48391;49.184;2.418;2022-09-21T09:40:05;5.00;;;2.22;;
62353;SDS011;48391;49.184;2.418;2022-09-21T09:52:47;5.32;;;2.22;;
62353;SDS011;48391;49.184;2.418;2022-09-21T09:55:18;4.22;;;2.85;;
62353;SDS011;48391;49.184;2.418;2022-09-21T09:57:45;5.10;;;2.40;;
62353;SDS011;48391;49.184;2.418;2022-09-21T10:00:13;6.70;;;1.95;;
62353;SDS011;48391;49.184;2.418;2022-09-21T10:02:50;1.63;;;1.40;;
62353;SDS011;48391;49.184;2.418;2022-09-21T10:05:21;3.00;;;2.30;;
62353;SDS011;48391;49.184;2.418;2022-09-21T10:07:47;3.00;;;1.30;;
62353;SDS011;48391;49.184;2.418;2022-09-21T10:13:11;0.95;;;0.85;;
62353;SDS011;48391;49.184;2.418;2022-09-21T10:15:47;3.72;;;1.40;;
62353;SDS011;48391;49.184;2.418;2022-09-21T10:18:21;1.85;;;1.38;;
62353;SDS011;48391;49.184;2.418;2022-09-21T10:20:51;1.92;;;0.70;;
62353;SDS011;48391;49.184;2.418;2022-09-21T10:23:18;2.92;;;0.80;;
62353;SDS011;48391;49.184;2.418;2022-09-21T10:25:44;1.35;;;0.55;;
62353;SDS011;48391;49.184;2.418;2022-09-21T10:28:17;0.90;;;0.77;;
62353;SDS011;48391;49.184;2.418;2022-09-21T10:30:44;3.63;;;0.90;;
62353;SDS011;48391;49.184;2.418;2022-09-21T10:33:20;2.22;;;1.35;;
62353;SDS011;48391;49.184;2.418;2022-09-21T10:35:50;0.70;;;0.70;;
62353;SDS011;48391;49.184;2.418;2022-09-21T10:38:17;1.48;;;0.52;;
62353;SDS011;48391;49.184;2.418;2022-09-21T10:40:43;1.42;;;0.80;;
62353;SDS011;48391;49.184;2.418;2022-09-21T10:45:52;1.15;;;0.50;;
62353;SDS011;48391;49.184;2.418;2022-09-21T10:48:19;1.58;;;0.65;;
62353;SDS011;48391;49.184;2.418;2022-09-21T10:50:47;0.45;;;0.25;;
62353;SDS011;48391;49.184;2.418;2022-09-21T10:55:49;0.57;;;0.20;;
62353;SDS011;48391;49.184;2.418;2022-09-21T10:58:17;0.60;;;0.52;;
62353;SDS011;48391;49.184;2.418;2022-09-21T11:00:45;1.20;;;0.63;;
62353;SDS011;48391;49.184;2.418;2022-09-21T11:05:54;1.33;;;0.15;;
62353;SDS011;48391;49.184;2.418;2022-09-21T16:56:21;2.00;;;0.22;;
62353;SDS011;48391;49.184;2.418;2022-09-21T16:58:47;0.22;;;0.10;;
62353;SDS011;48391;49.184;2.418;2022-09-21T17:01:15;0.10;;;0.00;;
62353;SDS011;48391;49.184;2.418;2022-09-21T17:03:43;0.77;;;0.10;;
62353;SDS011;48391;49.184;2.418;2022-09-21T17:06:20;0.32;;;0.00;;
62353;SDS011;48391;49.184;2.418;2022-09-21T17:08:47;2.42;;;0.28;;
62353;SDS011;48391;49.184;2.418;2022-09-21T17:11:14;0.50;;;0.08;;
62353;SDS011;48391;49.184;2.418;2022-09-21T17:13:47;0.85;;;0.20;;
62353;SDS011;48391;49.184;2.418;2022-09-21T17:16:13;1.30;;;0.52;;
62353;SDS011;48391;49.184;2.418;2022-09-21T17:18:47;0.10;;;0.00;;
62353;SDS011;48391;49.184;2.418;2022-09-21T17:21:14;1.13;;;0.45;;
62353;SDS011;48391;49.184;2.418;2022-09-21T17:23:40;0.30;;;0.20;;
62353;SDS011;48391;49.184;2.418;2022-09-21T17:26:12;0.28;;;0.00;;
62353;SDS011;48391;49.184;2.418;2022-09-21T17:28:43;0.10;;;0.10;;
62353;SDS011;48391;49.184;2.418;2022-09-21T17:31:13;0.63;;;0.03;;
62353;SDS011;48391;49.184;2.418;2022-09-21T17:33:40;1.10;;;0.00;;
62353;SDS011;48391;49.184;2.418;2022-09-21T17:36:09;0.00;;;0.00;;
62353;SDS011;48391;49.184;2.418;2022-09-21T17:38:36;0.82;;;0.10;;
62353;SDS011;48391;49.184;2.418;2022-09-21T17:41:02;0.40;;;0.30;;
62353;SDS011;48391;49.184;2.418;2022-09-21T17:46:05;1.85;;;0.17;;
62353;SDS011;48391;49.184;2.418;2022-09-21T17:48:32;0.30;;;0.10;;
62353;SDS011;48391;49.184;2.418;2022-09-21T17:50:58;0.40;;;0.20;;
62353;SDS011;48391;49.184;2.418;2022-09-21T17:53:24;0.22;;;0.22;;
62353;SDS011;48391;49.184;2.418;2022-09-21T18:03:51;0.50;;;0.40;;
62353;SDS011;48391;49.184;2.418;2022-09-21T18:06:17;0.30;;;0.17;;
62353;SDS011;48391;49.184;2.418;2022-09-21T18:08:43;2.08;;;0.45;;
62353;SDS011;48391;49.184;2.418;2022-09-21T18:16:12;0.08;;;0.00;;
62353;SDS011;48391;49.184;2.418;2022-09-21T18:19:33;0.60;;;0.17;;
62353;SDS011;48391;49.184;2.418;2022-09-21T18:21:30;0.10;;;0.10;;
62353;SDS011;48391;49.184;2.418;2022-09-21T18:26:24;0.20;;;0.13;;
62353;SDS011;48391;49.184;2.418;2022-09-21T18:28:50;0.57;;;0.00;;
62353;SDS011;48391;49.184;2.418;2022-09-21T18:36:32;2.15;;;0.20;;
62353;SDS011;48391;49.184;2.418;2022-09-21T18:44:23;0.10;;;0.00;;
62353;SDS011;48391;49.184;2.418;2022-09-21T18:52:23;0.52;;;0.10;;
62353;SDS011;48391;49.184;2.418;2022-09-21T18:54:53;0.22;;;0.17;;
62353;SDS011;48391;49.184;2.418;2022-09-21T18:57:19;1.10;;;0.55;;
62353;SDS011;48391;49.184;2.418;2022-09-21T18:59:47;2.45;;;0.10;;
62353;SDS011;48391;49.184;2.418;2022-09-21T19:02:15;0.10;;;0.10;;
62353;SDS011;48391;49.184;2.418;2022-09-21T19:04:42;0.45;;;0.45;;
62353;SDS011;48391;49.184;2.418;2022-09-21T19:26:15;0.10;;;0.03;;
62353;SDS011;48391;49.184;2.418;2022-09-21T19:28:59;0.10;;;0.10;;
62353;SDS011;48391;49.184;2.418;2022-09-21T19:31:27;0.82;;;0.35;;
62353;SDS011;48391;49.184;2.418;2022-09-21T19:33:53;0.80;;;0.10;;
62353;SDS011;48391;49.184;2.418;2022-09-21T19:36:19;0.20;;;0.20;;
62353;SDS011;48391;49.184;2.418;2022-09-21T19:38:46;0.75;;;0.47;;
62353;SDS011;48391;49.184;2.418;2022-09-21T19:43:50;0.47;;;0.32;;
62353;SDS011;48391;49.184;2.418;2022-09-21T19:48:45;0.70;;;0.25;;
62353;SDS011;48391;49.184;2.418;2022-09-21T19:51:15;0.40;;;0.40;;
62353;SDS011;48391;49.184;2.418;2022-09-21T19:56:27;0.45;;;0.45;;
62353;SDS011;48391;49.184;2.418;2022-09-21T19:58:54;0.82;;;0.65;;
62353;SDS011;48391;49.184;2.418;2022-09-21T20:01:39;0.98;;;0.57;;
62353;SDS011;48391;49.184;2.418;2022-09-21T20:04:08;0.57;;;0.35;;
62353;SDS011;48391;49.184;2.418;2022-09-21T20:06:37;0.20;;;0.20;;
62353;SDS011;48391;49.184;2.418;2022-09-21T20:11:46;0.50;;;0.30;;
62353;SDS011;48391;49.184;2.418;2022-09-21T20:22:11;0.63;;;0.57;;
62353;SDS011;48391;49.184;2.418;2022-09-21T20:29:35;1.35;;;0.40;;
62353;SDS011;48391;49.184;2.418;2022-09-21T20:32:01;0.40;;;0.40;;
62353;SDS011;48391;49.184;2.418;2022-09-21T20:34:27;1.77;;;0.73;;
62353;SDS011;48391;49.184;2.418;2022-09-21T20:36:54;0.85;;;0.38;;
62353;SDS011;48391;49.184;2.418;2022-09-21T20:39:19;0.52;;;0.45;;
62353;SDS011;48391;49.184;2.418;2022-09-21T20:41:46;1.60;;;0.65;;
62353;SDS011;48391;49.184;2.418;2022-09-21T20:44:13;0.45;;;0.30;;
62353;SDS011;48391;49.184;2.418;2022-09-21T20:46:39;1.58;;;0.47;;
62353;SDS011;48391;49.184;2.418;2022-09-21T20:49:05;1.23;;;0.60;;
62353;SDS011;48391;49.184;2.418;2022-09-21T20:51:32;1.27;;;0.93;;
62353;SDS011;48391;49.184;2.418;2022-09-21T20:53:58;2.42;;;1.50;;
62353;SDS011;48391;49.184;2.418;2022-09-21T20:56:26;4.38;;;2.10;;
62353;SDS011;48391;49.184;2.418;2022-09-21T20:58:52;8.15;;;2.85;;
62353;SDS011;48391;49.184;2.418;2022-09-21T21:01:18;8.05;;;3.92;;
62353;SDS011;48391;49.184;2.418;2022-09-21T21:03:44;9.27;;;5.65;;
62353;SDS011;48391;49.184;2.418;2022-09-21T21:06:14;7.22;;;4.30;;
62353;SDS011;48391;49.184;2.418;2022-09-21T21:08:42;8.18;;;4.13;;
62353;SDS011;48391;49.184;2.418;2022-09-21T21:11:09;7.72;;;3.83;;
62353;SDS011;48391;49.184;2.418;2022-09-21T21:13:35;7.05;;;3.65;;
62353;SDS011;48391;49.184;2.418;2022-09-21T21:16:01;6.70;;;4.22;;
62353;SDS011;48391;49.184;2.418;2022-09-21T21:18:28;7.30;;;3.75;;
62353;SDS011;48391;49.184;2.418;2022-09-21T21:20:54;6.72;;;4.43;;
62353;SDS011;48391;49.184;2.418;2022-09-21T21:23:20;4.43;;;2.55;;
62353;SDS011;48391;49.184;2.418;2022-09-21T21:25:46;3.95;;;2.53;;
62353;SDS011;48391;49.184;2.418;2022-09-21T21:28:13;3.20;;;2.28;;
62353;SDS011;48391;49.184;2.418;2022-09-21T21:30:39;3.33;;;2.80;;
62353;SDS011;48391;49.184;2.418;2022-09-21T21:33:05;1.83;;;1.50;;
62353;SDS011;48391;49.184;2.418;2022-09-21T21:35:31;3.85;;;2.00;;
62353;SDS011;48391;49.184;2.418;2022-09-21T21:37:57;3.63;;;2.75;;
62353;SDS011;48391;49.184;2.418;2022-09-21T21:40:23;2.88;;;2.42;;
62353;SDS011;48391;49.184;2.418;2022-09-21T21:42:50;2.75;;;1.95;;
62353;SDS011;48391;49.184;2.418;2022-09-21T21:45:16;2.47;;;2.08;;
62353;SDS011;48391;49.184;2.418;2022-09-21T21:47:42;3.78;;;2.80;;
62353;SDS011;48391;49.184;2.418;2022-09-21T21:50:09;2.70;;;2.10;;
62353;SDS011;48391;49.184;2.418;2022-09-21T21:52:35;4.57;;;2.40;;
62353;SDS011;48391;49.184;2.418;2022-09-21T21:55:01;2.08;;;1.90;;
62353;SDS011;48391;49.184;2.418;2022-09-21T21:57:27;2.42;;;2.22;;
62353;SDS011;48391;49.184;2.418;2022-09-21T21:59:53;2.90;;;2.30;;
62353;SDS011;48391;49.184;2.418;2022-09-21T22:02:19;3.03;;;2.00;;
62353;SDS011;48391;49.184;2.418;2022-09-21T22:04:45;2.95;;;2.10;;
62353;SDS011;48391;49.184;2.418;2022-09-21T22:07:11;2.42;;;2.10;;
62353;SDS011;48391;49.184;2.418;2022-09-21T22:09:37;2.00;;;1.70;;
62353;SDS011;48391;49.184;2.418;2022-09-21T22:12:03;2.53;;;1.77;;
62353;SDS011;48391;49.184;2.418;2022-09-21T22:14:29;2.28;;;1.60;;
62353;SDS011;48391;49.184;2.418;2022-09-21T22:16:55;2.10;;;1.40;;
62353;SDS011;48391;49.184;2.418;2022-09-21T22:19:22;1.13;;;1.00;;
62353;SDS011;48391;49.184;2.418;2022-09-21T22:21:48;3.08;;;1.52;;
62353;SDS011;48391;49.184;2.418;2022-09-21T22:24:16;2.22;;;1.60;;
62353;SDS011;48391;49.184;2.418;2022-09-21T22:26:43;2.65;;;1.40;;
62353;SDS011;48391;49.184;2.418;2022-09-21T22:29:10;1.60;;;1.50;;
62353;SDS011;48391;49.184;2.418;2022-09-21T22:31:41;2.30;;;2.08;;
62353;SDS011;48391;49.184;2.418;2022-09-21T22:34:08;2.58;;;1.67;;
62353;SDS011;48391;49.184;2.418;2022-09-21T22:36:36;1.77;;;1.23;;
62353;SDS011;48391;49.184;2.418;2022-09-21T22:39:02;2.83;;;1.40;;
62353;SDS011;48391;49.184;2.418;2022-09-21T22:41:29;1.17;;;0.90;;
62353;SDS011;48391;49.184;2.418;2022-09-21T22:43:56;1.13;;;1.05;;
62353;SDS011;48391;49.184;2.418;2022-09-21T22:46:23;2.40;;;1.77;;
62353;SDS011;48391;49.184;2.418;2022-09-21T22:48:49;1.80;;;1.20;;
62353;SDS011;48391;49.184;2.418;2022-09-21T22:51:15;2.55;;;1.80;;
62353;SDS011;48391;49.184;2.418;2022-09-21T22:53:42;3.28;;;2.33;;
62353;SDS011;48391;49.184;2.418;2022-09-21T22:56:10;4.03;;;2.63;;
62353;SDS011;48391;49.184;2.418;2022-09-21T22:58:37;3.78;;;2.53;;
62353;SDS011;48391;49.184;2.418;2022-09-21T23:03:29;2.30;;;1.83;;
62353;SDS011;48391;49.184;2.418;2022-09-21T23:05:58;2.90;;;1.88;;
62353;SDS011;48391;49.184;2.418;2022-09-21T23:08:24;1.73;;;1.23;;
62353;SDS011;48391;49.184;2.418;2022-09-21T23:10:51;2.95;;;1.98;;
62353;SDS011;48391;49.184;2.418;2022-09-21T23:13:17;1.95;;;1.52;;
62353;SDS011;48391;49.184;2.418;2022-09-21T23:15:43;3.35;;;1.70;;
62353;SDS011;48391;49.184;2.418;2022-09-21T23:18:09;2.85;;;1.80;;
62353;SDS011;48391;49.184;2.418;2022-09-21T23:20:35;2.50;;;1.50;;